Jamaica — CUGW5 — position and weather

sailwx.info

Track history (hours):
 
Tides and Currents Weather Stations Pressure Air Temp Water Temp Dewpoint Dewpoint Depression Visibility Wind Speed Wind Dir Waves Ship Positions

Jamaica

Last reported at 2018-May-21 22:11 UTC. Time now 2018-May-22 02:21 UTC.
Position N 38°35' W 009°53'.

Type: Fishing. MMSI: 263405550.

Date/timePositionNaut miles runAvg speedWind from/ knotsBaromVisibWave heightAir tempDewpointWater temp
2018-May-21 22:11N 38°35' W 009°53'1 6.0
2018-May-21 21:59N 38°36' W 009°52'4 7.0
2018-May-21 21:27N 38°39' W 009°50'5 7.0
2018-May-21 20:42N 38°44' W 009°47'1 7.2
2018-May-21 20:30N 38°45' W 009°46'4 7.3
2018-May-21 20:00N 38°49' W 009°44'4 7.1
2018-May-21 19:30N 38°52' W 009°42'4 7.1
2018-May-21 19:00N 38°55' W 009°39'4 7.1
2018-May-21 18:30N 38°58' W 009°37'4 7.0
2018-May-21 18:00N 39°01' W 009°35'4 7.3
2018-May-21 17:30N 39°04' W 009°33'4 7.1
2018-May-21 17:00N 39°07' W 009°31'4 7.4
2018-May-21 16:30N 39°11' W 009°29'6 0.5
2018-May-21 03:23N 39°16' W 009°26'2 5.5
2018-May-21 03:00N 39°15' W 009°28'  
2018-May-15 03:40N 39°12' W 009°26'1 5.8
2018-May-15 03:27N 39°11' W 009°27'3 6.0
2018-May-15 03:00N 39°08' W 009°28'3 5.8
2018-May-15 02:30N 39°06' W 009°29'3 6.0
2018-May-15 02:00N 39°03' W 009°30'3 5.7
2018-May-15 01:30N 38°60' W 009°30'3 5.6
2018-May-15 01:00N 38°57' W 009°31'3 5.4
2018-May-15 00:30N 38°54' W 009°32'3 5.4
2018-May-15 00:00N 38°52' W 009°32'3 5.1
2018-May-14 23:30N 38°49' W 009°33'3 5.1
2018-May-14 23:00N 38°47' W 009°33'3 5.1
2018-May-14 22:30N 38°44' W 009°33'2 4.8
2018-May-14 22:00N 38°42' W 009°31'2 4.5
2018-May-14 21:30N 38°40' W 009°30'2 4.7
2018-May-14 21:00N 38°38' W 009°28'3 5.1
2018-May-14 20:29N 38°36' W 009°26'2 4.8
2018-May-14 20:00N 38°34' W 009°24'2 4.5
2018-May-14 19:30N 38°32' W 009°23'2 4.1
2018-May-14 18:59N 38°31' W 009°21'2 4.6
2018-May-14 18:30N 38°29' W 009°19'2 4.9
2018-May-14 18:00N 38°27' W 009°17'2 4.7
2018-May-14 17:30N 38°25' W 009°15'3 5.2
2018-May-14 17:00N 38°24' W 009°13'4 6.4
2018-May-14 16:24N 38°25' W 009°08'2 4.1
2018-May-14 15:59N 38°26' W 009°07'0 0.0
2018-May-14 15:30N 38°26' W 009°07'0 0.0
2018-May-14 15:00N 38°26' W 009°07'0 0.0
2018-May-14 14:30N 38°26' W 009°07'0 0.0
2018-May-14 14:00N 38°26' W 009°07'0 0.0
2018-May-14 13:30N 38°26' W 009°07'0 0.0
2018-May-14 13:00N 38°26' W 009°07'0 0.0
2018-May-14 12:30N 38°26' W 009°07'0 0.0
2018-May-14 12:00N 38°26' W 009°07'0 0.0
2018-May-14 11:30N 38°26' W 009°07'0 0.0
2018-May-14 11:00N 38°26' W 009°07'0 0.0
2018-May-14 10:30N 38°26' W 009°07'0 0.0
2018-May-14 09:57N 38°26' W 009°07'0 0.0
2018-May-14 09:30N 38°26' W 009°07'0 0.0
2018-May-14 09:00N 38°26' W 009°07'0 0.0
2018-May-14 08:30N 38°26' W 009°07'0 0.0
2018-May-14 08:00N 38°26' W 009°07'0 0.0
2018-May-14 07:29N 38°26' W 009°07'0 0.0
2018-May-14 06:59N 38°26' W 009°07'0 0.0
2018-May-14 06:30N 38°26' W 009°07'0 0.0
2018-May-14 06:00N 38°26' W 009°07'0 0.0
2018-May-14 05:30N 38°26' W 009°07'0 0.5
2018-May-14 05:00N 38°26' W 009°06'7 6.9
2018-May-14 04:00N 38°21' W 009°12'4 6.7
2018-May-14 03:25N 38°18' W 009°16'4 6.4
2018-May-14 02:47N 38°15' W 009°19'2 6.2
2018-May-14 02:29N 38°14' W 009°21'3 5.9
2018-May-14 01:56N 38°12' W 009°24'  
Track history (hours):
 
Tides and Currents Weather Stations Pressure Air Temp Water Temp Dewpoint Dewpoint Depression Visibility Wind Speed Wind Dir Waves Ship Positions

Jamaica

Last reported at 2018-May-21 22:11 UTC. Time now 2018-May-22 02:21 UTC.
Position N 38°35' W 009°53'.

Type: Fishing. MMSI: 263405550.

Date/timePositionNaut miles runAvg speedWind from/ knotsBaromVisibWave heightAir tempDewpointWater temp
2018-May-21 22:11N 38°35' W 009°53'1 6.0
2018-May-21 21:59N 38°36' W 009°52'4 7.0
2018-May-21 21:27N 38°39' W 009°50'5 7.0
2018-May-21 20:42N 38°44' W 009°47'1 7.2
2018-May-21 20:30N 38°45' W 009°46'4 7.3
2018-May-21 20:00N 38°49' W 009°44'4 7.1
2018-May-21 19:30N 38°52' W 009°42'4 7.1
2018-May-21 19:00N 38°55' W 009°39'4 7.1
2018-May-21 18:30N 38°58' W 009°37'4 7.0
2018-May-21 18:00N 39°01' W 009°35'4 7.3
2018-May-21 17:30N 39°04' W 009°33'4 7.1
2018-May-21 17:00N 39°07' W 009°31'4 7.4
2018-May-21 16:30N 39°11' W 009°29'6 0.5
2018-May-21 03:23N 39°16' W 009°26'2 5.5
2018-May-21 03:00N 39°15' W 009°28'  
2018-May-15 03:40N 39°12' W 009°26'1 5.8
2018-May-15 03:27N 39°11' W 009°27'3 6.0
2018-May-15 03:00N 39°08' W 009°28'3 5.8
2018-May-15 02:30N 39°06' W 009°29'3 6.0
2018-May-15 02:00N 39°03' W 009°30'3 5.7
2018-May-15 01:30N 38°60' W 009°30'3 5.6
2018-May-15 01:00N 38°57' W 009°31'3 5.4
2018-May-15 00:30N 38°54' W 009°32'3 5.4
2018-May-15 00:00N 38°52' W 009°32'3 5.1
2018-May-14 23:30N 38°49' W 009°33'3 5.1
2018-May-14 23:00N 38°47' W 009°33'3 5.1
2018-May-14 22:30N 38°44' W 009°33'2 4.8
2018-May-14 22:00N 38°42' W 009°31'2 4.5
2018-May-14 21:30N 38°40' W 009°30'2 4.7
2018-May-14 21:00N 38°38' W 009°28'3 5.1
2018-May-14 20:29N 38°36' W 009°26'2 4.8
2018-May-14 20:00N 38°34' W 009°24'2 4.5
2018-May-14 19:30N 38°32' W 009°23'2 4.1
2018-May-14 18:59N 38°31' W 009°21'2 4.6
2018-May-14 18:30N 38°29' W 009°19'2 4.9
2018-May-14 18:00N 38°27' W 009°17'2 4.7
2018-May-14 17:30N 38°25' W 009°15'3 5.2
2018-May-14 17:00N 38°24' W 009°13'4 6.4
2018-May-14 16:24N 38°25' W 009°08'2 4.1
2018-May-14 15:59N 38°26' W 009°07'0 0.0
2018-May-14 15:30N 38°26' W 009°07'0 0.0
2018-May-14 15:00N 38°26' W 009°07'0 0.0
2018-May-14 14:30N 38°26' W 009°07'0 0.0
2018-May-14 14:00N 38°26' W 009°07'0 0.0
2018-May-14 13:30N 38°26' W 009°07'0 0.0
2018-May-14 13:00N 38°26' W 009°07'0 0.0
2018-May-14 12:30N 38°26' W 009°07'0 0.0
2018-May-14 12:00N 38°26' W 009°07'0 0.0
2018-May-14 11:30N 38°26' W 009°07'0 0.0
2018-May-14 11:00N 38°26' W 009°07'0 0.0
2018-May-14 10:30N 38°26' W 009°07'0 0.0
2018-May-14 09:57N 38°26' W 009°07'0 0.0
2018-May-14 09:30N 38°26' W 009°07'0 0.0
2018-May-14 09:00N 38°26' W 009°07'0 0.0
2018-May-14 08:30N 38°26' W 009°07'0 0.0
2018-May-14 08:00N 38°26' W 009°07'0 0.0
2018-May-14 07:29N 38°26' W 009°07'0 0.0
2018-May-14 06:59N 38°26' W 009°07'0 0.0
2018-May-14 06:30N 38°26' W 009°07'0 0.0
2018-May-14 06:00N 38°26' W 009°07'0 0.0
2018-May-14 05:30N 38°26' W 009°07'0 0.5
2018-May-14 05:00N 38°26' W 009°06'7 6.9
2018-May-14 04:00N 38°21' W 009°12'4 6.7
2018-May-14 03:25N 38°18' W 009°16'4 6.4
2018-May-14 02:47N 38°15' W 009°19'2 6.2
2018-May-14 02:29N 38°14' W 009°21'3 5.9
2018-May-14 01:56N 38°12' W 009°24'  

Dump ship's entire track history